Time;durP1;ratioP1;P1;durP2;ratioP2;P2;SDS_P1;SDS_P2;PMS_P1;PMS_P2;Temp;Humidity;BMP_temperature;BMP_pressure;BME280_temperature;BME280_humidity;BME280_pressure;Samples;Min_cycle;Max_cycle;Signal;HPM_P1;HPM_P2
2023/01/07 00:00:58;;;;;;;9.63;6.35;;;11.20;89.80;;;;;;4983570;28;20034;-71
2023/01/07 00:03:24;;;;;;;11.25;5.93;;;11.10;89.80;;;;;;4983037;28;20061;-73
2023/01/07 00:05:49;;;;;;;10.45;6.18;;;11.10;89.90;;;;;;4984078;28;20073;-71
2023/01/07 00:08:15;;;;;;;10.40;6.45;;;11.10;89.80;;;;;;4982467;28;20551;-74
2023/01/07 00:10:41;;;;;;;11.95;6.65;;;11.10;89.70;;;;;;4985387;28;20022;-72
2023/01/07 00:13:06;;;;;;;10.52;6.20;;;11.10;89.80;;;;;;4984496;28;20085;-72
2023/01/07 00:15:32;;;;;;;10.43;6.53;;;11.10;89.80;;;;;;4983347;28;20054;-74
2023/01/07 00:17:57;;;;;;;10.63;5.80;;;11.10;89.90;;;;;;4987487;28;20026;-74
2023/01/07 00:20:23;;;;;;;11.82;5.55;;;11.10;89.90;;;;;;4983706;28;20479;-72
2023/01/07 00:22:50;;;;;;;9.40;5.07;;;11.10;89.80;;;;;;4988116;28;20101;-71
2023/01/07 00:25:15;;;;;;;14.68;5.68;;;11.10;89.70;;;;;;4982746;28;20085;-71
2023/01/07 00:27:41;;;;;;;8.30;5.10;;;11.10;89.60;;;;;;4989045;28;20038;-70
2023/01/07 00:30:07;;;;;;;8.95;4.85;;;11.10;89.50;;;;;;4989921;28;20474;-74
2023/01/07 00:35:22;;;;;;;10.27;5.50;;;11.10;89.20;;;;;;4982015;28;20045;-72
2023/01/07 00:37:54;;;;;;;10.13;5.50;;;11.10;89.20;;;;;;4983368;28;20101;-72
2023/01/07 00:40:21;;;;;;;9.30;5.03;;;11.10;89.20;;;;;;4978577;28;20751;-70
2023/01/07 00:42:53;;;;;;;9.45;4.40;;;11.10;89.10;;;;;;4983261;28;20026;-75
2023/01/07 00:45:19;;;;;;;7.80;4.32;;;11.10;89.00;;;;;;4981290;28;20034;-75
2023/01/07 00:47:44;;;;;;;11.48;4.68;;;11.20;88.90;;;;;;4980621;28;20030;-74
2023/01/07 00:50:10;;;;;;;10.13;4.43;;;11.20;88.80;;;;;;4986948;28;20080;-72
2023/01/07 00:52:36;;;;;;;9.38;4.25;;;11.10;88.80;;;;;;4984770;28;20446;-71
2023/01/07 00:55:02;;;;;;;7.28;4.40;;;11.20;88.70;;;;;;4991454;28;20023;-73
2023/01/07 00:57:27;;;;;;;10.48;5.05;;;11.20;88.70;;;;;;4980834;28;20164;-75
2023/01/07 00:59:53;;;;;;;8.48;4.32;;;11.20;88.60;;;;;;4990502;28;20026;-75
2023/01/07 01:02:19;;;;;;;9.85;4.82;;;11.20;88.70;;;;;;4991237;28;20114;-73
2023/01/07 01:04:44;;;;;;;8.48;4.25;;;11.10;88.70;;;;;;4989094;28;20680;-73
2023/01/07 01:07:10;;;;;;;9.02;4.72;;;11.10;88.80;;;;;;4981591;28;20653;-70
2023/01/07 01:09:36;;;;;;;8.35;4.68;;;11.10;88.90;;;;;;4980995;28;20038;-73
2023/01/07 01:12:01;;;;;;;12.15;4.55;;;11.00;89.00;;;;;;4984977;28;20092;-72
2023/01/07 01:14:27;;;;;;;13.55;4.93;;;11.00;89.00;;;;;;4984131;28;20596;-72
2023/01/07 01:16:53;;;;;;;8.85;4.85;;;11.00;89.00;;;;;;4983351;28;20050;-76
2023/01/07 01:19:18;;;;;;;9.38;5.32;;;11.00;89.10;;;;;;4984869;28;20027;-74
2023/01/07 01:21:44;;;;;;;10.27;4.72;;;11.00;89.30;;;;;;4983319;28;20113;-72
2023/01/07 01:24:10;;;;;;;9.43;5.90;;;11.00;89.40;;;;;;4982205;28;20564;-75
2023/01/07 01:26:36;;;;;;;12.60;5.97;;;10.90;89.50;;;;;;4983210;28;20097;-70
2023/01/07 01:29:01;;;;;;;11.20;5.15;;;11.00;89.50;;;;;;4982234;28;20069;-76
2023/01/07 01:31:27;;;;;;;10.57;5.93;;;10.90;89.50;;;;;;4983092;28;20100;-71
2023/01/07 01:33:54;;;;;;;8.63;4.80;;;10.90;89.50;;;;;;4982328;28;20037;-72
2023/01/07 01:36:19;;;;;;;9.70;5.60;;;11.00;89.40;;;;;;4987631;28;20470;-73
2023/01/07 01:38:45;;;;;;;9.75;5.50;;;11.00;89.60;;;;;;4982855;28;20076;-72
2023/01/07 01:41:15;;;;;;;8.98;4.97;;;10.90;89.60;;;;;;4989592;28;20930;-71
2023/01/07 01:43:42;;;;;;;12.88;5.53;;;10.90;89.80;;;;;;4983299;28;20034;-72
2023/01/07 01:46:19;;;;;;;10.15;5.47;;;10.90;89.80;;;;;;4981721;28;20037;-71
2023/01/07 01:49:03;;;;;;;11.00;5.75;;;10.90;89.80;;;;;;4984556;28;20145;-73
2023/01/07 01:51:33;;;;;;;10.03;5.13;;;10.90;89.90;;;;;;4990206;28;20534;-72
2023/01/07 01:54:05;;;;;;;10.60;5.65;;;10.90;89.80;;;;;;4981434;28;20030;-70
2023/01/07 01:56:34;;;;;;;11.90;5.65;;;11.00;89.80;;;;;;4980200;28;20137;-71
2023/01/07 01:59:04;;;;;;;10.55;5.75;;;11.00;89.70;;;;;;4983851;28;20101;-75
2023/01/07 02:01:33;;;;;;;9.60;5.45;;;11.00;89.60;;;;;;4981696;28;20046;-74
2023/01/07 02:04:00;;;;;;;9.93;6.05;;;11.00;89.50;;;;;;4981414;28;20055;-71
2023/01/07 02:06:33;;;;;;;8.95;5.40;;;11.00;89.30;;;;;;4981852;28;20042;-72
2023/01/07 02:08:58;;;;;;;9.88;5.40;;;11.00;89.30;;;;;;4975257;28;20022;-76
2023/01/07 02:11:43;;;;;;;9.20;5.55;;;11.00;89.30;;;;;;4983369;28;20030;-71
2023/01/07 02:14:25;;;;;;;9.55;5.45;;;11.00;89.20;;;;;;4983604;28;20159;-74
2023/01/07 02:16:59;;;;;;;13.65;5.78;;;11.00;89.30;;;;;;4978895;28;20030;-74
2023/01/07 02:19:42;;;;;;;9.93;5.37;;;10.90;89.30;;;;;;4976828;28;20044;-71
2023/01/07 02:22:35;;;;;;;11.57;5.53;;;10.90;89.20;;;;;;4982710;28;20280;-73
2023/01/07 02:25:49;;;;;;;11.20;6.20;;;10.90;89.30;;;;;;4963825;28;20031;-71
2023/01/07 02:28:46;;;;;;;9.68;5.75;;;10.90;89.30;;;;;;4984474;28;20026;-70
2023/01/07 02:31:26;;;;;;;10.68;5.95;;;10.80;89.30;;;;;;4986989;28;20125;-70
2023/01/07 02:33:58;;;;;;;12.25;5.80;;;10.80;89.30;;;;;;4986360;28;20034;-76
2023/01/07 02:36:51;;;;;;;12.20;5.82;;;10.80;89.40;;;;;;4970337;28;20133;-73
2023/01/07 02:39:41;;;;;;;12.48;6.05;;;10.70;89.30;;;;;;4993801;28;20037;-71
2023/01/07 02:42:20;;;;;;;11.85;6.35;;;10.80;89.30;;;;;;4982698;28;20398;-76
2023/01/07 02:44:58;;;;;;;11.38;6.30;;;10.70;89.40;;;;;;4991888;28;20121;-76
2023/01/07 02:47:31;;;;;;;12.00;6.28;;;10.70;89.30;;;;;;4996778;28;20132;-73
2023/01/07 02:49:56;;;;;;;17.63;7.60;;;10.60;89.30;;;;;;4984820;28;20467;-74
2023/01/07 02:52:30;;;;;;;13.02;7.13;;;10.70;89.40;;;;;;4983781;28;20543;-72
2023/01/07 02:55:01;;;;;;;10.90;6.72;;;10.60;89.40;;;;;;4994761;28;20398;-71
2023/01/07 02:57:39;;;;;;;11.65;7.20;;;10.60;89.30;;;;;;4991710;28;20128;-72
2023/01/07 03:00:16;;;;;;;11.70;7.18;;;10.60;89.30;;;;;;4983348;28;20129;-70
2023/01/07 03:03:06;;;;;;;10.90;6.90;;;10.60;89.40;;;;;;4995089;28;20041;-71
2023/01/07 03:06:05;;;;;;;11.55;7.57;;;10.60;89.40;;;;;;4985001;28;20026;-70
2023/01/07 03:08:34;;;;;;;11.30;6.90;;;10.60;89.40;;;;;;4984945;28;20094;-71
2023/01/07 03:11:03;;;;;;;10.35;6.10;;;10.60;89.40;;;;;;4987988;28;20034;-73
2023/01/07 03:13:37;;;;;;;14.02;8.00;;;10.60;89.40;;;;;;4976680;28;20031;-73
2023/01/07 03:16:15;;;;;;;14.55;8.13;;;10.60;89.50;;;;;;4983588;28;20538;-70
2023/01/07 03:18:47;;;;;;;12.77;7.10;;;10.60;89.50;;;;;;4981212;28;20026;-70
2023/01/07 03:21:16;;;;;;;10.13;7.38;;;10.60;89.50;;;;;;4989051;28;20398;-73
2023/01/07 03:23:46;;;;;;;10.50;7.28;;;10.60;89.50;;;;;;4988573;28;20117;-74
2023/01/07 03:26:15;;;;;;;12.05;7.47;;;10.60;89.50;;;;;;4985372;28;20039;-71
2023/01/07 03:28:41;;;;;;;11.98;7.35;;;10.60;89.60;;;;;;4983240;28;20376;-71
2023/01/07 03:31:11;;;;;;;13.57;8.48;;;10.60;89.70;;;;;;4982789;28;20038;-74
2023/01/07 03:33:55;;;;;;;13.90;7.93;;;10.60;89.80;;;;;;4985295;28;20037;-76
2023/01/07 03:36:28;;;;;;;13.93;8.05;;;10.60;89.60;;;;;;4985180;28;20072;-72
2023/01/07 03:38:55;;;;;;;12.35;8.80;;;10.70;89.60;;;;;;4987381;28;20520;-75
2023/01/07 03:44:05;;;;;;;12.43;7.82;;;10.70;89.40;;;;;;4987120;28;20040;-71
2023/01/07 03:46:34;;;;;;;12.52;8.35;;;10.70;89.20;;;;;;4990552;28;20088;-72
2023/01/07 03:48:59;;;;;;;12.02;8.15;;;10.70;89.30;;;;;;4988149;28;20378;-73
2023/01/07 03:51:25;;;;;;;12.63;8.32;;;10.70;89.30;;;;;;4985808;28;20270;-70
2023/01/07 03:53:51;;;;;;;13.50;7.80;;;10.70;89.30;;;;;;4984034;28;20062;-72
2023/01/07 03:56:16;;;;;;;12.98;8.40;;;10.70;89.30;;;;;;4976184;28;20038;-75
2023/01/07 03:58:42;;;;;;;13.00;7.88;;;10.70;89.20;;;;;;4986095;28;20029;-71
2023/01/07 04:01:08;;;;;;;12.70;7.97;;;10.70;89.20;;;;;;4984165;28;20064;-75
2023/01/07 04:03:33;;;;;;;13.25;7.90;;;10.70;89.20;;;;;;4992816;28;20057;-71
2023/01/07 04:05:59;;;;;;;11.77;7.40;;;10.70;89.10;;;;;;4983338;28;20039;-72
2023/01/07 04:08:25;;;;;;;11.00;6.30;;;10.70;89.00;;;;;;4987059;28;20025;-75
2023/01/07 04:10:50;;;;;;;10.25;6.97;;;10.70;88.90;;;;;;4992682;28;20034;-71
2023/01/07 04:13:16;;;;;;;9.57;6.45;;;10.70;88.90;;;;;;4994204;28;20045;-74
2023/01/07 04:15:43;;;;;;;10.18;6.65;;;10.80;88.60;;;;;;4979425;28;20051;-76
2023/01/07 04:18:09;;;;;;;9.52;6.45;;;10.80;88.50;;;;;;4984573;28;20579;-71
2023/01/07 04:20:35;;;;;;;10.50;6.35;;;10.70;88.40;;;;;;4998316;28;20048;-72
2023/01/07 04:23:01;;;;;;;11.23;6.13;;;10.70;88.30;;;;;;4996148;28;20666;-72
2023/01/07 04:25:26;;;;;;;10.18;5.90;;;10.70;88.20;;;;;;4994238;28;20042;-71
2023/01/07 04:27:52;;;;;;;11.25;5.75;;;10.70;88.20;;;;;;4976818;28;20022;-74
2023/01/07 04:30:17;;;;;;;10.23;5.22;;;10.70;88.00;;;;;;4994911;28;20565;-71
2023/01/07 04:32:43;;;;;;;11.48;5.80;;;10.80;87.80;;;;;;4980563;28;20077;-71
2023/01/07 04:35:09;;;;;;;9.50;5.35;;;10.80;87.70;;;;;;4981591;28;20022;-72
2023/01/07 04:37:37;;;;;;;8.85;5.00;;;10.80;87.40;;;;;;4982547;28;20089;-70
2023/01/07 04:40:03;;;;;;;8.88;5.30;;;10.80;87.10;;;;;;4978520;28;20026;-71
2023/01/07 04:42:29;;;;;;;9.15;4.60;;;10.80;86.90;;;;;;4996097;28;20033;-72
2023/01/07 04:44:55;;;;;;;8.00;4.47;;;10.80;86.80;;;;;;4986017;28;20039;-73
2023/01/07 04:47:20;;;;;;;7.20;4.40;;;10.80;86.90;;;;;;4984521;28;20053;-77
2023/01/07 04:49:46;;;;;;;10.55;4.65;;;10.80;86.70;;;;;;4989824;28;20088;-77
2023/01/07 04:52:11;;;;;;;7.72;4.38;;;10.80;86.40;;;;;;4983845;28;20466;-72
2023/01/07 04:54:37;;;;;;;8.02;4.85;;;10.80;86.40;;;;;;4983761;28;20564;-72
2023/01/07 04:57:03;;;;;;;7.15;4.28;;;10.80;86.30;;;;;;4991911;28;20031;-70
2023/01/07 04:59:28;;;;;;;8.73;3.70;;;10.80;86.10;;;;;;4990396;28;20065;-74
2023/01/07 05:01:54;;;;;;;7.60;4.15;;;10.80;85.90;;;;;;4980584;28;20061;-72
2023/01/07 05:04:20;;;;;;;7.53;4.03;;;10.80;85.90;;;;;;4989437;28;20034;-70
2023/01/07 05:06:46;;;;;;;8.68;3.85;;;10.80;85.90;;;;;;4984547;28;20488;-73
2023/01/07 05:09:11;;;;;;;7.68;4.65;;;10.80;85.80;;;;;;4988475;28;20034;-71
2023/01/07 05:11:37;;;;;;;7.57;4.00;;;10.80;85.90;;;;;;4982203;28;20041;-74
2023/01/07 05:14:03;;;;;;;8.85;3.60;;;10.80;85.70;;;;;;4982396;28;20073;-71
2023/01/07 05:16:28;;;;;;;7.18;3.47;;;10.80;85.50;;;;;;4980199;28;20133;-71
2023/01/07 05:18:54;;;;;;;6.38;3.17;;;10.80;85.40;;;;;;4981352;28;20022;-74
2023/01/07 05:21:20;;;;;;;7.10;3.50;;;10.80;85.20;;;;;;4988336;28;20109;-71
2023/01/07 05:23:45;;;;;;;7.05;3.88;;;10.80;85.10;;;;;;4981895;28;20056;-74
2023/01/07 05:26:11;;;;;;;7.75;3.72;;;10.80;84.90;;;;;;4986769;28;20673;-73
2023/01/07 05:28:37;;;;;;;7.85;3.97;;;10.70;84.90;;;;;;4983395;28;20026;-72
2023/01/07 05:31:03;;;;;;;7.68;3.72;;;10.80;84.60;;;;;;4981878;28;20117;-75
2023/01/07 05:33:28;;;;;;;6.55;3.05;;;10.80;84.40;;;;;;4985223;28;20038;-72
2023/01/07 05:35:54;;;;;;;6.82;3.10;;;10.80;84.50;;;;;;4981910;28;20061;-73
2023/01/07 05:38:22;;;;;;;6.00;3.35;;;10.80;84.50;;;;;;4982020;28;20379;-71
2023/01/07 05:40:48;;;;;;;5.13;3.28;;;10.80;84.60;;;;;;4993662;28;20022;-71
2023/01/07 05:43:14;;;;;;;7.70;3.35;;;10.80;84.20;;;;;;4983989;28;20034;-72
2023/01/07 05:45:43;;;;;;;5.50;2.97;;;10.70;84.20;;;;;;4987429;28;20137;-73
2023/01/07 05:48:09;;;;;;;6.32;2.80;;;10.80;84.20;;;;;;4984636;28;20109;-75
2023/01/07 05:50:34;;;;;;;6.32;2.92;;;10.70;84.10;;;;;;4996719;28;20053;-73
2023/01/07 05:53:00;;;;;;;6.35;3.30;;;10.70;84.10;;;;;;4993357;28;20078;-73
2023/01/07 05:55:26;;;;;;;7.18;2.78;;;10.70;83.80;;;;;;4995106;28;20658;-71
2023/01/07 05:57:51;;;;;;;5.68;2.97;;;10.70;83.60;;;;;;4992626;28;20509;-74
2023/01/07 06:00:17;;;;;;;7.22;2.80;;;10.80;83.70;;;;;;4989979;28;20569;-75
2023/01/07 06:02:43;;;;;;;6.45;2.88;;;10.80;83.60;;;;;;4988779;28;20018;-71
2023/01/07 06:05:09;;;;;;;6.13;3.40;;;10.80;83.50;;;;;;4982647;28;20073;-72
2023/01/07 06:07:35;;;;;;;8.15;2.83;;;10.70;83.20;;;;;;4986168;28;20486;-72
2023/01/07 06:10:01;;;;;;;5.63;3.03;;;10.70;83.10;;;;;;4986523;28;20113;-74
2023/01/07 06:12:26;;;;;;;5.95;2.70;;;10.70;83.10;;;;;;4991488;28;20117;-72
2023/01/07 06:14:52;;;;;;;5.85;2.85;;;10.70;82.90;;;;;;4990802;28;20555;-72
2023/01/07 06:17:18;;;;;;;4.55;2.67;;;10.70;82.60;;;;;;4983915;28;20034;-72
2023/01/07 06:19:43;;;;;;;7.65;2.80;;;10.70;82.50;;;;;;4988106;28;20030;-72
2023/01/07 06:22:09;;;;;;;4.80;2.42;;;10.80;82.50;;;;;;4983764;28;20031;-74
2023/01/07 06:24:35;;;;;;;6.88;2.70;;;10.80;82.20;;;;;;4995350;28;20033;-72
2023/01/07 06:27:00;;;;;;;6.40;2.60;;;10.80;82.20;;;;;;4979493;28;20033;-76
2023/01/07 06:29:26;;;;;;;5.60;2.58;;;10.80;82.20;;;;;;4994964;28;20026;-75
2023/01/07 06:31:52;;;;;;;4.70;2.50;;;10.80;82.00;;;;;;4983535;28;20035;-75
2023/01/07 06:34:17;;;;;;;5.95;2.80;;;10.80;82.00;;;;;;4986076;28;20030;-73
2023/01/07 06:36:43;;;;;;;4.68;2.75;;;10.80;81.90;;;;;;4986532;28;20588;-72
2023/01/07 06:39:09;;;;;;;6.40;3.33;;;10.80;81.90;;;;;;4987935;28;20034;-73
2023/01/07 06:41:38;;;;;;;8.02;3.47;;;10.80;81.90;;;;;;4997496;28;21324;-75
2023/01/07 06:44:04;;;;;;;4.85;2.22;;;10.80;81.80;;;;;;4994400;28;20057;-71
2023/01/07 06:46:29;;;;;;;3.97;2.40;;;10.80;81.60;;;;;;4980335;28;20510;-71
2023/01/07 06:48:55;;;;;;;5.05;2.20;;;10.80;81.70;;;;;;4994305;28;20026;-72
2023/01/07 06:51:21;;;;;;;5.32;2.10;;;10.80;81.40;;;;;;4983955;28;20801;-71
2023/01/07 06:53:46;;;;;;;5.18;2.10;;;10.80;81.20;;;;;;4997875;28;20040;-74
2023/01/07 06:56:12;;;;;;;3.65;2.00;;;10.90;81.10;;;;;;4988538;28;20054;-71
2023/01/07 06:58:38;;;;;;;5.15;2.53;;;10.80;81.10;;;;;;4989769;28;20072;-70
2023/01/07 07:01:05;;;;;;;5.88;2.65;;;10.80;81.20;;;;;;4981211;28;20027;-73
2023/01/07 07:03:30;;;;;;;2.92;2.05;;;10.80;81.00;;;;;;4995664;28;20766;-70
2023/01/07 07:05:56;;;;;;;5.65;2.33;;;10.80;81.00;;;;;;4986463;28;20058;-72
2023/01/07 07:08:25;;;;;;;3.70;2.22;;;10.80;80.90;;;;;;4993786;28;20431;-77
2023/01/07 07:10:50;;;;;;;5.00;2.22;;;10.80;80.70;;;;;;4984113;28;20344;-70
2023/01/07 07:13:16;;;;;;;4.10;2.20;;;10.80;80.60;;;;;;4989004;28;20498;-73
2023/01/07 07:15:42;;;;;;;3.60;2.47;;;10.80;80.60;;;;;;4990045;28;20130;-71
2023/01/07 07:18:07;;;;;;;6.97;2.20;;;10.80;80.40;;;;;;5009614;28;20032;-70
2023/01/07 07:20:33;;;;;;;4.15;2.47;;;10.80;80.40;;;;;;5007835;28;20030;-74
2023/01/07 07:23:01;;;;;;;3.78;2.10;;;10.80;80.10;;;;;;5011259;28;20037;-73
2023/01/07 07:25:27;;;;;;;4.88;2.25;;;10.80;80.00;;;;;;5004840;28;20032;-70
2023/01/07 07:27:53;;;;;;;5.25;2.25;;;10.80;79.70;;;;;;5011195;28;20022;-70
2023/01/07 07:30:18;;;;;;;4.90;1.98;;;10.80;79.70;;;;;;5012334;28;20022;-72
2023/01/07 07:32:45;;;;;;;3.28;2.03;;;10.80;79.50;;;;;;5012595;28;20022;-72
2023/01/07 07:35:11;;;;;;;4.78;2.22;;;10.80;79.30;;;;;;5015371;28;20877;-74
2023/01/07 07:37:37;;;;;;;3.33;1.92;;;10.80;79.20;;;;;;5008242;28;20045;-72
2023/01/07 07:40:07;;;;;;;5.60;2.17;;;10.80;79.50;;;;;;5013545;28;20025;-73
2023/01/07 07:42:34;;;;;;;3.30;2.38;;;10.80;79.50;;;;;;5004445;28;20061;-71
2023/01/07 07:44:59;;;;;;;4.15;2.13;;;10.80;79.50;;;;;;4997276;28;20060;-73
2023/01/07 07:47:25;;;;;;;4.10;2.38;;;10.80;79.50;;;;;;4995569;28;20490;-74
2023/01/07 07:49:51;;;;;;;4.57;2.00;;;10.80;79.40;;;;;;4993801;28;20026;-71
2023/01/07 07:52:17;;;;;;;5.07;2.28;;;10.80;79.10;;;;;;5009026;28;20644;-72
2023/01/07 07:54:42;;;;;;;3.38;2.00;;;10.80;79.30;;;;;;5004573;28;20094;-72
2023/01/07 07:57:08;;;;;;;3.95;1.90;;;10.80;79.00;;;;;;5012219;28;20040;-71
2023/01/07 07:59:34;;;;;;;3.42;1.92;;;10.80;78.90;;;;;;5014186;28;20124;-73
2023/01/07 08:01:59;;;;;;;3.92;1.85;;;10.90;78.90;;;;;;5010843;28;20293;-69
2023/01/07 08:04:27;;;;;;;3.50;1.95;;;10.90;78.80;;;;;;5002663;28;20038;-71
2023/01/07 08:06:53;;;;;;;4.72;2.10;;;10.80;79.00;;;;;;4992033;28;20038;-70
2023/01/07 08:09:19;;;;;;;5.15;2.25;;;10.80;78.90;;;;;;5002678;28;20084;-71
2023/01/07 08:11:45;;;;;;;3.63;1.77;;;10.80;78.80;;;;;;5009360;28;20045;-71
2023/01/07 08:14:11;;;;;;;3.95;2.40;;;10.80;78.80;;;;;;5010875;28;20557;-70
2023/01/07 08:16:36;;;;;;;4.68;2.17;;;10.80;78.80;;;;;;5010090;28;20124;-73
2023/01/07 08:19:02;;;;;;;4.43;2.30;;;10.90;78.60;;;;;;5002405;28;20040;-76
2023/01/07 08:21:28;;;;;;;3.17;1.92;;;10.80;78.70;;;;;;5009406;28;20029;-70
2023/01/07 08:23:53;;;;;;;4.05;1.90;;;10.90;78.60;;;;;;5000434;28;20378;-71
2023/01/07 08:26:19;;;;;;;4.70;2.30;;;10.90;78.40;;;;;;5009833;28;20101;-73
2023/01/07 08:28:45;;;;;;;5.22;2.22;;;10.90;78.40;;;;;;5002785;28;20076;-70
2023/01/07 08:31:11;;;;;;;6.40;2.50;;;10.90;78.40;;;;;;5009023;28;20026;-76
2023/01/07 08:33:38;;;;;;;3.03;1.95;;;10.90;78.40;;;;;;5002366;28;20149;-77
2023/01/07 08:36:05;;;;;;;4.82;2.53;;;10.90;77.90;;;;;;5002979;28;20037;-70
2023/01/07 08:38:31;;;;;;;5.10;2.25;;;10.90;78.00;;;;;;5002149;28;20109;-73
2023/01/07 08:40:58;;;;;;;5.55;2.60;;;11.00;77.60;;;;;;5000656;28;20121;-72
2023/01/07 08:43:23;;;;;;;2.78;1.80;;;11.00;77.50;;;;;;5001414;28;20030;-70
2023/01/07 08:45:50;;;;;;;3.75;2.00;;;11.00;77.20;;;;;;4998875;28;20629;-72
2023/01/07 08:48:16;;;;;;;3.40;1.98;;;11.00;77.00;;;;;;5006277;28;20033;-72
2023/01/07 08:50:42;;;;;;;4.07;2.25;;;11.00;76.90;;;;;;5002551;28;20116;-72
2023/01/07 08:53:07;;;;;;;3.40;1.98;;;11.00;76.50;;;;;;5001872;28;20886;-72
2023/01/07 08:55:33;;;;;;;4.53;2.10;;;11.00;76.80;;;;;;5003955;28;20040;-71
2023/01/07 08:57:59;;;;;;;5.55;2.20;;;10.90;76.60;;;;;;5000684;28;20108;-73
2023/01/07 09:00:25;;;;;;;5.38;2.10;;;10.90;76.90;;;;;;4999665;28;20044;-71
2023/01/07 09:02:50;;;;;;;7.22;3.15;;;10.90;76.90;;;;;;5002827;28;20030;-71
2023/01/07 09:05:17;;;;;;;5.55;2.40;;;10.80;76.60;;;;;;5002829;28;20037;-73
2023/01/07 09:07:42;;;;;;;9.90;4.57;;;10.80;76.70;;;;;;5002490;28;20029;-70
2023/01/07 09:10:09;;;;;;;4.65;2.30;;;10.90;76.80;;;;;;5008260;28;20025;-73
2023/01/07 09:12:36;;;;;;;4.75;2.17;;;10.90;77.00;;;;;;4999226;28;20034;-70
2023/01/07 09:15:01;;;;;;;4.45;2.30;;;11.00;76.80;;;;;;5012262;28;20346;-70
2023/01/07 09:17:27;;;;;;;4.15;2.42;;;11.00;76.60;;;;;;5001212;28;20452;-73
2023/01/07 09:19:53;;;;;;;3.67;2.20;;;11.00;76.40;;;;;;5006072;28;20711;-73
2023/01/07 09:22:18;;;;;;;5.32;2.00;;;11.00;76.00;;;;;;5003201;28;20541;-74
2023/01/07 09:24:44;;;;;;;4.72;2.33;;;11.10;76.10;;;;;;4996009;28;20034;-75
2023/01/07 09:27:10;;;;;;;4.93;2.03;;;11.10;75.80;;;;;;5001627;28;20049;-72
2023/01/07 09:29:36;;;;;;;3.85;2.25;;;11.10;76.00;;;;;;5001774;28;20057;-74
2023/01/07 09:32:01;;;;;;;4.10;2.28;;;11.10;75.80;;;;;;4999526;28;20121;-72
2023/01/07 09:34:27;;;;;;;4.80;2.10;;;11.10;75.60;;;;;;5005144;28;20125;-74
2023/01/07 09:36:53;;;;;;;4.78;2.30;;;11.20;75.50;;;;;;5003654;28;20030;-73
2023/01/07 09:39:18;;;;;;;4.78;2.20;;;11.30;75.40;;;;;;5006153;28;20029;-70
2023/01/07 09:42:04;;;;;;;4.43;2.22;;;11.30;75.30;;;;;;5001432;28;20128;-76
2023/01/07 09:44:56;;;;;;;3.85;2.20;;;11.20;75.50;;;;;;4999955;28;20026;-74
2023/01/07 09:47:25;;;;;;;5.45;2.25;;;11.30;75.60;;;;;;5000745;28;20065;-72
2023/01/07 09:49:55;;;;;;;4.30;2.25;;;11.40;75.70;;;;;;5003893;28;20108;-72
2023/01/07 09:52:44;;;;;;;3.38;2.13;;;11.40;75.40;;;;;;5004164;28;20058;-74
2023/01/07 09:55:19;;;;;;;4.00;2.03;;;11.50;75.20;;;;;;5010434;28;20056;-72
2023/01/07 09:57:45;;;;;;;4.32;2.20;;;11.50;75.00;;;;;;5004966;28;20096;-72
2023/01/07 10:00:18;;;;;;;5.28;2.17;;;11.60;74.70;;;;;;5008797;28;20034;-73
2023/01/07 10:02:52;;;;;;;4.43;2.03;;;11.80;74.90;;;;;;5003905;28;20073;-73
2023/01/07 10:05:45;;;;;;;5.33;2.53;;;11.70;74.40;;;;;;5004163;28;20057;-73
2023/01/07 10:08:24;;;;;;;4.57;2.25;;;11.70;74.60;;;;;;5002332;28;20283;-73
2023/01/07 10:11:02;;;;;;;4.55;2.22;;;11.70;74.70;;;;;;5003348;28;20029;-72
2023/01/07 10:13:56;;;;;;;3.72;2.15;;;11.60;74.90;;;;;;4998782;28;20533;-72
2023/01/07 10:16:48;;;;;;;5.20;2.58;;;11.50;75.40;;;;;;5001223;28;20057;-72
2023/01/07 10:19:25;;;;;;;5.22;2.45;;;11.40;76.00;;;;;;5001505;28;20030;-72
2023/01/07 10:22:01;;;;;;;5.47;2.58;;;11.30;76.60;;;;;;4999290;28;20375;-73
2023/01/07 10:24:56;;;;;;;3.92;2.22;;;11.30;76.50;;;;;;4990028;28;20798;-73
2023/01/07 10:27:39;;;;;;;4.65;2.28;;;11.20;76.80;;;;;;4992861;28;20026;-73
2023/01/07 10:30:10;;;;;;;5.75;2.55;;;11.20;77.00;;;;;;4999032;28;20022;-73
2023/01/07 10:32:36;;;;;;;5.38;2.60;;;11.20;77.10;;;;;;4996409;28;20041;-72
2023/01/07 10:35:03;;;;;;;5.50;2.95;;;11.20;77.20;;;;;;4994171;28;20084;-73
2023/01/07 10:37:31;;;;;;;4.68;2.70;;;11.30;77.10;;;;;;4994930;28;20042;-74
2023/01/07 10:40:20;;;;;;;6.00;2.60;;;11.40;76.60;;;;;;4997503;28;20032;-74
2023/01/07 10:43:17;;;;;;;4.50;2.53;;;11.40;76.70;;;;;;4999479;28;20041;-73
2023/01/07 10:46:20;;;;;;;4.72;2.78;;;11.30;76.80;;;;;;5000739;28;20734;-72
2023/01/07 10:49:03;;;;;;;5.53;2.60;;;11.30;77.00;;;;;;5002996;28;20021;-73
2023/01/07 10:52:08;;;;;;;7.25;2.83;;;11.40;77.20;;;;;;4997592;28;20038;-74
2023/01/07 10:54:40;;;;;;;4.93;3.10;;;11.30;77.00;;;;;;4999521;28;20034;-73
2023/01/07 10:57:18;;;;;;;6.35;2.90;;;11.30;77.30;;;;;;4987899;28;20050;-74
2023/01/07 10:59:49;;;;;;;5.95;2.90;;;11.30;77.10;;;;;;4985498;28;20177;-73
2023/01/07 11:02:21;;;;;;;7.47;2.88;;;11.40;77.20;;;;;;4975063;28;20050;-74
2023/01/07 11:04:46;;;;;;;4.85;2.50;;;11.60;76.80;;;;;;4987549;28;20034;-73
2023/01/07 11:07:43;;;;;;;5.20;2.63;;;11.80;76.20;;;;;;4987116;28;20531;-72
2023/01/07 11:10:15;;;;;;;6.40;2.85;;;11.90;75.70;;;;;;4988919;28;20049;-75
2023/01/07 11:12:50;;;;;;;4.95;2.47;;;12.00;75.70;;;;;;4986779;28;20031;-72
2023/01/07 11:15:24;;;;;;;4.70;2.58;;;12.10;75.00;;;;;;4987642;28;20430;-72
2023/01/07 11:17:53;;;;;;;5.40;2.50;;;12.00;75.20;;;;;;4988674;28;20061;-72
2023/01/07 11:20:41;;;;;;;5.80;3.20;;;11.80;75.10;;;;;;4993508;28;20698;-74
2023/01/07 11:23:35;;;;;;;6.18;2.58;;;12.00;75.80;;;;;;4992896;28;20399;-74
2023/01/07 11:26:33;;;;;;;6.78;2.60;;;12.00;75.10;;;;;;4992989;28;20031;-74
2023/01/07 11:29:15;;;;;;;6.03;2.88;;;11.90;75.20;;;;;;4985367;28;20039;-74
2023/01/07 11:31:59;;;;;;;6.68;2.95;;;11.90;75.70;;;;;;4995346;28;20042;-73
2023/01/07 11:34:49;;;;;;;5.07;2.72;;;11.80;75.10;;;;;;4986289;28;20077;-75
2023/01/07 11:37:31;;;;;;;5.85;2.40;;;11.80;75.70;;;;;;4985865;28;20038;-76
2023/01/07 11:39:58;;;;;;;5.53;2.88;;;11.70;75.30;;;;;;4986800;28;20514;-78
2023/01/07 11:42:39;;;;;;;5.22;2.50;;;11.80;75.50;;;;;;4986821;28;20077;-77
2023/01/07 11:45:17;;;;;;;4.97;2.60;;;11.80;74.90;;;;;;4982564;28;20758;-76
2023/01/07 11:48:06;;;;;;;3.95;2.35;;;11.80;75.00;;;;;;4987952;28;20114;-77
2023/01/07 11:51:00;;;;;;;4.15;2.20;;;12.00;74.70;;;;;;4980945;28;20066;-78
2023/01/07 11:53:49;;;;;;;5.32;2.80;;;12.20;74.00;;;;;;4984382;28;20074;-77
2023/01/07 11:56:20;;;;;;;5.97;2.63;;;12.20;73.50;;;;;;4986316;28;20042;-80
2023/01/07 11:59:14;;;;;;;6.03;2.30;;;12.10;73.40;;;;;;4983630;28;20026;-79
2023/01/07 12:01:51;;;;;;;5.97;2.80;;;12.10;73.60;;;;;;4973351;28;20130;-79
2023/01/07 12:04:28;;;;;;;5.82;2.78;;;12.00;73.80;;;;;;4984094;28;20045;-79
2023/01/07 12:07:03;;;;;;;5.30;2.47;;;11.90;73.80;;;;;;4981539;28;20038;-79
2023/01/07 12:09:37;;;;;;;3.97;2.38;;;11.80;73.90;;;;;;4976823;28;20686;-78
2023/01/07 12:12:06;;;;;;;6.45;2.70;;;11.80;74.20;;;;;;4987983;28;20050;-79
2023/01/07 12:14:37;;;;;;;5.40;2.20;;;11.90;74.30;;;;;;4993573;28;20527;-80
2023/01/07 12:17:31;;;;;;;5.40;2.28;;;11.90;74.20;;;;;;4986018;28;20774;-78
2023/01/07 12:20:31;;;;;;;4.70;2.50;;;11.90;74.40;;;;;;4980965;28;20074;-80
2023/01/07 12:23:17;;;;;;;5.57;2.78;;;11.90;74.40;;;;;;4983442;28;20145;-80
2023/01/07 12:26:16;;;;;;;4.18;2.33;;;11.90;74.40;;;;;;4980039;28;20034;-79
2023/01/07 12:29:05;;;;;;;4.75;2.30;;;11.90;73.90;;;;;;4981316;28;20023;-79
2023/01/07 12:31:34;;;;;;;4.00;2.60;;;12.00;73.90;;;;;;4976923;28;20431;-79
2023/01/07 12:33:59;;;;;;;4.38;2.13;;;12.10;73.90;;;;;;4979293;28;20037;-79
2023/01/07 12:36:42;;;;;;;4.32;2.50;;;12.00;73.60;;;;;;4978532;28;20030;-80
2023/01/07 12:39:26;;;;;;;5.03;2.67;;;12.00;73.50;;;;;;4977340;28;20046;-80
2023/01/07 12:42:02;;;;;;;5.93;2.60;;;12.00;73.80;;;;;;4979488;28;20106;-81
2023/01/07 12:44:28;;;;;;;5.38;2.53;;;12.10;73.70;;;;;;4979974;28;20030;-79
2023/01/07 12:47:14;;;;;;;4.65;2.40;;;11.90;73.80;;;;;;4980326;28;20140;-80
2023/01/07 12:50:12;;;;;;;5.35;2.35;;;12.00;74.00;;;;;;4978263;28;20038;-80
2023/01/07 12:52:37;;;;;;;4.13;2.40;;;11.90;74.00;;;;;;4982240;28;20050;-79
2023/01/07 12:55:15;;;;;;;5.72;2.72;;;11.80;74.10;;;;;;4984009;28;20030;-78
2023/01/07 12:57:44;;;;;;;4.25;2.78;;;11.90;74.30;;;;;;4979506;28;20065;-79
2023/01/07 13:00:27;;;;;;;5.90;3.45;;;11.90;74.50;;;;;;4987176;28;20026;-78
2023/01/07 13:03:07;;;;;;;5.20;2.70;;;11.90;74.80;;;;;;4971055;28;20130;-79
2023/01/07 13:05:41;;;;;;;7.43;3.50;;;11.90;74.90;;;;;;4976922;28;20766;-82
2023/01/07 13:08:44;;;;;;;4.05;2.70;;;11.90;75.30;;;;;;4978664;28;20072;-83
2023/01/07 13:14:37;;;;;;;7.65;3.25;;;11.80;75.40;;;;;;4985922;28;20069;-79